• Join FlightAware (Why Join?)
  • Login
  • US Flag 
07:18PM EDT


 

Airport Tracker/Info


-or-


 

Live Flight TrackerFlight Track Log ✈ CNS22 ✈ 12-May-2013 ✈ KTPF - MYNN / NAS

Flight Track Log - Related Links

Times and Time Zones

All times are in EDT time to prevent confusion due to time zone crossing. See the CNS22 flight status page for this flight to view local times or setup timezone preferences in your user account.

Time Position Orientation Groundspeed Altitude Reporting Facility
EDT Latitude Longitude Course Direction KTS MPH feet Rate Location/Type
06:02AM 27.9167 -82.4500 119° Southeast 103 119 300  Level Tampa TRACON
06:03AM 27.9000 -82.4167 119° Southeast 137 158 1,800 1,500 Climbing Tampa TRACON
06:05AM 27.8397 -82.3817 153° Southeast 161 185 4,800 1,620 Climbing Miami Center
06:06AM 27.7964 -82.3725 169° South 161 185 6,500 1,560 Climbing Miami Center
06:07AM 27.7467 -82.3583 166° South 166 191 8,000 1,500 Climbing Miami Center
06:08AM 27.6972 -82.3442 166° South 178 205 9,500 1,440 Climbing Miami Center
06:09AM 27.6417 -82.3253 163° South 188 216 10,900 1,440 Climbing Miami Center
06:10AM 27.5881 -82.3086 165° South 200 230 12,400 1,440 Climbing Miami Center
06:11AM 27.5417 -82.2619 138° Southeast 205 236 13,800 1,440 Climbing Miami Center
06:12AM 27.5128 -82.2019 118° Southeast 222 255 15,300 1,500 Climbing Miami Center
06:13AM 27.4856 -82.1469 119° Southeast 211 243 16,800 1,200 Climbing Miami Center
06:14AM 27.4542 -82.0917 123° Southeast 211 243 17,700 900 Climbing Miami Center
06:15AM 27.4231 -82.0272 119° Southeast 223 257 18,700 900 Climbing Miami Center
06:16AM 27.3917 -81.9697 122° Southeast 228 262 19,500 840 Climbing Miami Center
06:17AM 27.3583 -81.9072 121° Southeast 238 274 20,400 720 Climbing Miami Center
06:18AM 27.3192 -81.8333 121° Southeast 238 274 21,000 300 Climbing Miami Center
06:19AM 27.2819 -81.7639 121° Southeast 256 295 21,000  Level Miami Center
06:20AM 27.2408 -81.6875 121° Southeast 271 312 21,000  Level Miami Center
06:21AM 27.2056 -81.6183 120° Southeast 284 327 21,000  Level Miami Center
06:22AM 27.1581 -81.5347 123° Southeast 284 327 21,000  Level Miami Center
06:23AM 27.1167 -81.4583 121° Southeast 284 327 21,000  Level Miami Center
06:24AM 27.0775 -81.3797 119° Southeast 284 327 21,000  Level Miami Center
06:25AM 27.0339 -81.3036 123° Southeast 284 327 21,000  Level Miami Center
06:26AM 26.9922 -81.2272 121° Southeast 284 327 21,000  Level Miami Center
06:27AM 26.9508 -81.1511 121° Southeast 284 327 21,000  Level Miami Center
06:28AM 26.9092 -81.0753 122° Southeast 284 327 21,000  Level Miami Center
06:29AM 26.8586 -81.0197 136° Southeast 284 327 21,000  Level Miami Center
06:30AM 26.8039 -80.9597 136° Southeast 279 321 21,000  Level Miami Center
06:31AM 26.7517 -80.8811 127° Southeast 287 330 21,000  Level Miami Center
06:32AM 26.7100 -80.8053 122° Southeast 287 330 21,000  Level Miami Center
06:33AM 26.6703 -80.7297 120° Southeast 287 330 21,000  Level Miami Center
06:34AM 26.6325 -80.6611 122° Southeast 282 325 21,000  Level Miami Center
06:35AM 26.5906 -80.5783 120° Southeast 282 325 21,000  Level Miami Center
06:36AM 26.5547 -80.5097 120° Southeast 282 325 21,000  Level Miami Center
06:37AM 26.5089 -80.4250 121° Southeast 282 325 21,000  Level Miami Center
06:38AM 26.4728 -80.3589 121° Southeast 287 330 21,000  Level Miami Center
06:39AM 26.4311 -80.2764 119° Southeast 282 325 21,000  Level Miami Center
06:40AM 26.3950 -80.2058 120° Southeast 282 325 21,000  Level Miami Center
06:41AM 26.3569 -80.1328 120° Southeast 282 325 21,000  Level Miami Center
06:42AM 26.3131 -80.0483 120° Southeast 282 325 21,000  Level Miami Center
06:43AM 26.2747 -79.9822 123° Southeast 282 325 21,000  Level Miami Center
06:44AM 26.2386 -79.9072 118° Southeast 282 325 21,000  Level Miami Center
06:45AM 26.1983 -79.8344 122° Southeast 277 319 21,000  Level Miami Center
06:46AM 26.1603 -79.7594 119° Southeast 277 319 21,000  Level Miami Center
06:47AM 26.1197 -79.6867 122° Southeast 277 319 21,000  Level Miami Center
06:48AM 26.0817 -79.6142 120° Southeast 277 319 21,000  Level Miami Center
06:49AM 26.0411 -79.5392 121° Southeast 277 319 21,000  Level Miami Center
06:50AM 25.9925 -79.4572 123° Southeast 277 319 21,000  Level Miami Center
06:51AM 25.9542 -79.3847 120° Southeast 277 319 21,000  Level Miami Center
06:52AM 25.9175 -79.3169 121° Southeast 283 326 21,000  Level Miami Center
06:53AM 25.8811 -79.2422 118° Southeast 278 320 21,000  Level Miami Center
06:54AM 25.8406 -79.1675 121° Southeast 278 320 21,000  Level Miami Center
06:55AM 25.8019 -79.0931 120° Southeast 278 320 21,000  Level Miami Center
06:56AM 25.7636 -79.0186 120° Southeast 278 320 21,000  Level Miami Center
06:57AM 25.7186 -78.9486 125° Southeast 278 320 21,000 -180 Level Miami Center
06:58AM 25.6797 -78.8764 121° Southeast 278 320 20,700 -720 Descending Miami Center
06:59AM 25.6392 -78.7997 120° Southeast 283 326 19,600 -1,140 Descending Miami Center
07:00AM 25.5919 -78.7206 123° Southeast 290 334 18,500 -1,140 Descending Miami Center
07:01AM 25.5492 -78.6417 121° Southeast 296 341 17,400 -1,140 Descending Miami Center
07:02AM 25.5083 -78.5628 120° Southeast 296 341 16,300 -1,140 Descending Miami Center
07:03AM 25.4631 -78.4861 123° Southeast 296 341 15,200 -1,140 Descending Miami Center
07:04AM 25.4222 -78.4072 120° Southeast 296 341 14,100 -1,140 Descending Miami Center
07:05AM 25.3769 -78.3308 123° Southeast 296 341 13,000 -1,140 Descending Miami Center
07:06AM 25.3358 -78.2567 122° Southeast 296 341 11,900 -1,080 Descending Miami Center
07:07AM 25.2989 -78.1828 119° Southeast 291 335 10,900 -1,020 Descending Miami Center
07:09AM 25.2537 -78.0663 113° Southeast  Level FlightAware Approximate
07:16AM 25.0751 -77.5710 114° Southeast  Level FlightAware Approximate
07:17AM 25.0499 -77.4996 110° East  Level FlightAware Approximate
07:18AM 25.0390 -77.4662 110° East  Level Estimated
07:19AM 25.0390 -77.4662 110° East  Level Estimated
07:20AM 25.0390 -77.4662 110° East  Level Estimated
07:21AM 25.0390 -77.4662 110° East  Level Estimated
07:22AM 25.0390 -77.4662 110° East  Level Estimated
07:23AM 25.0390 -77.4662 110° East  Level Estimated
07:24AM 25.0390 -77.4662 110° East  Level Estimated
07:25AM 25.0390 -77.4662 110° East  Level Estimated
07:26AM 25.0390 -77.4662 110° East  Level Estimated
07:27AM 25.0390 -77.4662 110° East  Level Estimated
07:28AM 25.0390 -77.4662 110° East  Level Estimated
07:29AM 25.0390 -77.4662 110° East  Level Estimated
07:30AM 25.0390 -77.4662 110° East  Level Estimated
07:31AM 25.0390 -77.4662 110° East  Level Estimated